sensor_id;sensor_type;location;lat;lon;timestamp;P1;durP1;ratioP1;P2;durP2;ratioP2
23129;SDS011;11734;51.046;13.778;2023-12-14T00:02:10;27.70;;;14.73;;
23129;SDS011;11734;51.046;13.778;2023-12-14T00:04:37;26.43;;;14.87;;
23129;SDS011;11734;51.046;13.778;2023-12-14T00:07:05;31.20;;;15.77;;
23129;SDS011;11734;51.046;13.778;2023-12-14T00:09:32;29.37;;;15.60;;
23129;SDS011;11734;51.046;13.778;2023-12-14T00:11:59;25.97;;;14.17;;
23129;SDS011;11734;51.046;13.778;2023-12-14T00:14:27;27.63;;;14.33;;
23129;SDS011;11734;51.046;13.778;2023-12-14T00:16:54;28.43;;;15.23;;
23129;SDS011;11734;51.046;13.778;2023-12-14T00:19:25;32.70;;;16.23;;
23129;SDS011;11734;51.046;13.778;2023-12-14T00:21:52;27.23;;;15.43;;
23129;SDS011;11734;51.046;13.778;2023-12-14T00:24:19;29.53;;;15.77;;
23129;SDS011;11734;51.046;13.778;2023-12-14T00:26:48;28.13;;;15.27;;
23129;SDS011;11734;51.046;13.778;2023-12-14T00:29:15;29.00;;;16.00;;
23129;SDS011;11734;51.046;13.778;2023-12-14T00:31:43;29.30;;;14.73;;
23129;SDS011;11734;51.046;13.778;2023-12-14T00:34:10;27.23;;;14.63;;
23129;SDS011;11734;51.046;13.778;2023-12-14T00:36:37;29.30;;;16.23;;
23129;SDS011;11734;51.046;13.778;2023-12-14T00:39:05;30.07;;;15.57;;
23129;SDS011;11734;51.046;13.778;2023-12-14T00:41:32;26.20;;;14.77;;
23129;SDS011;11734;51.046;13.778;2023-12-14T00:43:59;31.10;;;16.50;;
23129;SDS011;11734;51.046;13.778;2023-12-14T00:46:27;30.97;;;14.33;;
23129;SDS011;11734;51.046;13.778;2023-12-14T00:48:54;27.73;;;14.87;;
23129;SDS011;11734;51.046;13.778;2023-12-14T00:51:21;31.20;;;15.80;;
23129;SDS011;11734;51.046;13.778;2023-12-14T00:53:48;26.00;;;14.33;;
23129;SDS011;11734;51.046;13.778;2023-12-14T00:56:16;30.47;;;15.77;;
23129;SDS011;11734;51.046;13.778;2023-12-14T00:58:45;28.97;;;15.13;;
23129;SDS011;11734;51.046;13.778;2023-12-14T01:01:12;31.67;;;15.60;;
23129;SDS011;11734;51.046;13.778;2023-12-14T01:03:40;28.43;;;15.80;;
23129;SDS011;11734;51.046;13.778;2023-12-14T01:06:07;30.60;;;15.73;;
23129;SDS011;11734;51.046;13.778;2023-12-14T01:08:34;25.63;;;14.80;;
23129;SDS011;11734;51.046;13.778;2023-12-14T01:11:02;26.20;;;14.77;;
23129;SDS011;11734;51.046;13.778;2023-12-14T01:13:29;29.57;;;15.57;;
23129;SDS011;11734;51.046;13.778;2023-12-14T01:15:57;28.23;;;15.70;;
23129;SDS011;11734;51.046;13.778;2023-12-14T01:18:24;28.07;;;15.53;;
23129;SDS011;11734;51.046;13.778;2023-12-14T01:20:51;26.77;;;14.50;;
23129;SDS011;11734;51.046;13.778;2023-12-14T01:23:18;30.17;;;16.07;;
23129;SDS011;11734;51.046;13.778;2023-12-14T01:25:46;25.13;;;15.23;;
23129;SDS011;11734;51.046;13.778;2023-12-14T01:28:13;27.27;;;15.87;;
23129;SDS011;11734;51.046;13.778;2023-12-14T01:30:40;27.23;;;15.17;;
23129;SDS011;11734;51.046;13.778;2023-12-14T01:33:08;29.27;;;14.77;;
23129;SDS011;11734;51.046;13.778;2023-12-14T01:35:36;25.10;;;15.67;;
23129;SDS011;11734;51.046;13.778;2023-12-14T01:38:03;28.57;;;15.63;;
23129;SDS011;11734;51.046;13.778;2023-12-14T01:40:30;24.93;;;14.90;;
23129;SDS011;11734;51.046;13.778;2023-12-14T01:43:07;28.10;;;15.63;;
23129;SDS011;11734;51.046;13.778;2023-12-14T01:45:36;27.77;;;15.10;;
23129;SDS011;11734;51.046;13.778;2023-12-14T01:48:04;28.33;;;15.70;;
23129;SDS011;11734;51.046;13.778;2023-12-14T01:50:32;27.10;;;14.83;;
23129;SDS011;11734;51.046;13.778;2023-12-14T01:52:59;30.40;;;15.87;;
23129;SDS011;11734;51.046;13.778;2023-12-14T01:55:26;26.37;;;14.90;;
23129;SDS011;11734;51.046;13.778;2023-12-14T01:57:54;27.63;;;14.93;;
23129;SDS011;11734;51.046;13.778;2023-12-14T02:00:34;26.30;;;15.47;;
23129;SDS011;11734;51.046;13.778;2023-12-14T02:03:03;28.17;;;15.40;;
23129;SDS011;11734;51.046;13.778;2023-12-14T02:05:30;28.13;;;14.87;;
23129;SDS011;11734;51.046;13.778;2023-12-14T02:07:58;25.73;;;15.50;;
23129;SDS011;11734;51.046;13.778;2023-12-14T02:10:25;26.03;;;15.07;;
23129;SDS011;11734;51.046;13.778;2023-12-14T02:12:53;26.30;;;14.70;;
23129;SDS011;11734;51.046;13.778;2023-12-14T02:15:20;22.90;;;13.70;;
23129;SDS011;11734;51.046;13.778;2023-12-14T02:17:47;24.50;;;14.03;;
23129;SDS011;11734;51.046;13.778;2023-12-14T02:20:14;23.13;;;13.83;;
23129;SDS011;11734;51.046;13.778;2023-12-14T02:22:51;28.13;;;14.30;;
23129;SDS011;11734;51.046;13.778;2023-12-14T02:25:20;21.67;;;13.47;;
23129;SDS011;11734;51.046;13.778;2023-12-14T02:27:48;24.80;;;13.40;;
23129;SDS011;11734;51.046;13.778;2023-12-14T02:30:15;23.73;;;13.33;;
23129;SDS011;11734;51.046;13.778;2023-12-14T02:32:43;22.10;;;12.40;;
23129;SDS011;11734;51.046;13.778;2023-12-14T02:35:10;23.60;;;13.07;;
23129;SDS011;11734;51.046;13.778;2023-12-14T02:37:38;22.90;;;14.00;;
23129;SDS011;11734;51.046;13.778;2023-12-14T02:40:09;19.87;;;12.23;;
23129;SDS011;11734;51.046;13.778;2023-12-14T02:42:36;24.73;;;13.27;;
23129;SDS011;11734;51.046;13.778;2023-12-14T02:45:04;23.90;;;13.20;;
23129;SDS011;11734;51.046;13.778;2023-12-14T02:47:31;23.63;;;13.27;;
23129;SDS011;11734;51.046;13.778;2023-12-14T02:49:58;22.53;;;12.63;;
23129;SDS011;11734;51.046;13.778;2023-12-14T02:52:26;18.73;;;12.13;;
23129;SDS011;11734;51.046;13.778;2023-12-14T02:54:53;21.50;;;12.87;;
23129;SDS011;11734;51.046;13.778;2023-12-14T02:57:21;20.17;;;11.87;;
23129;SDS011;11734;51.046;13.778;2023-12-14T02:59:48;22.20;;;12.33;;
23129;SDS011;11734;51.046;13.778;2023-12-14T03:02:15;18.77;;;11.67;;
23129;SDS011;11734;51.046;13.778;2023-12-14T03:04:42;19.53;;;12.40;;
23129;SDS011;11734;51.046;13.778;2023-12-14T03:07:10;19.33;;;11.43;;
23129;SDS011;11734;51.046;13.778;2023-12-14T03:09:41;18.70;;;11.93;;
23129;SDS011;11734;51.046;13.778;2023-12-14T03:12:10;20.00;;;12.80;;
23129;SDS011;11734;51.046;13.778;2023-12-14T03:14:38;17.97;;;11.20;;
23129;SDS011;11734;51.046;13.778;2023-12-14T03:17:07;20.00;;;11.93;;
23129;SDS011;11734;51.046;13.778;2023-12-14T03:19:39;19.60;;;12.33;;
23129;SDS011;11734;51.046;13.778;2023-12-14T03:22:10;21.17;;;12.10;;
23129;SDS011;11734;51.046;13.778;2023-12-14T03:24:37;20.90;;;11.87;;
23129;SDS011;11734;51.046;13.778;2023-12-14T03:27:04;17.10;;;11.60;;
23129;SDS011;11734;51.046;13.778;2023-12-14T03:29:32;22.03;;;12.80;;
23129;SDS011;11734;51.046;13.778;2023-12-14T03:31:59;19.50;;;12.00;;
23129;SDS011;11734;51.046;13.778;2023-12-14T03:34:26;19.60;;;12.43;;
23129;SDS011;11734;51.046;13.778;2023-12-14T03:36:55;21.00;;;11.90;;
23129;SDS011;11734;51.046;13.778;2023-12-14T03:39:22;20.37;;;12.20;;
23129;SDS011;11734;51.046;13.778;2023-12-14T03:41:50;22.23;;;12.60;;
23129;SDS011;11734;51.046;13.778;2023-12-14T03:44:17;19.33;;;13.27;;
23129;SDS011;11734;51.046;13.778;2023-12-14T03:46:44;21.33;;;13.30;;
23129;SDS011;11734;51.046;13.778;2023-12-14T03:49:12;20.57;;;12.37;;
23129;SDS011;11734;51.046;13.778;2023-12-14T03:51:39;17.40;;;11.57;;
23129;SDS011;11734;51.046;13.778;2023-12-14T03:54:07;20.33;;;12.70;;
23129;SDS011;11734;51.046;13.778;2023-12-14T03:56:34;20.80;;;12.27;;
23129;SDS011;11734;51.046;13.778;2023-12-14T03:59:01;20.97;;;12.47;;
23129;SDS011;11734;51.046;13.778;2023-12-14T04:01:28;20.83;;;12.33;;
23129;SDS011;11734;51.046;13.778;2023-12-14T04:03:56;22.63;;;12.27;;
23129;SDS011;11734;51.046;13.778;2023-12-14T04:06:23;21.33;;;12.63;;
23129;SDS011;11734;51.046;13.778;2023-12-14T04:08:50;19.03;;;12.47;;
23129;SDS011;11734;51.046;13.778;2023-12-14T04:11:18;21.03;;;12.83;;
23129;SDS011;11734;51.046;13.778;2023-12-14T04:13:45;21.43;;;13.47;;
23129;SDS011;11734;51.046;13.778;2023-12-14T04:16:19;22.87;;;13.33;;
23129;SDS011;11734;51.046;13.778;2023-12-14T04:18:51;20.27;;;12.43;;
23129;SDS011;11734;51.046;13.778;2023-12-14T04:21:18;21.70;;;12.80;;
23129;SDS011;11734;51.046;13.778;2023-12-14T04:23:46;23.23;;;13.73;;
23129;SDS011;11734;51.046;13.778;2023-12-14T04:26:13;21.13;;;13.10;;
23129;SDS011;11734;51.046;13.778;2023-12-14T04:28:40;21.97;;;12.97;;
23129;SDS011;11734;51.046;13.778;2023-12-14T04:31:11;21.30;;;12.50;;
23129;SDS011;11734;51.046;13.778;2023-12-14T04:33:38;21.00;;;12.70;;
23129;SDS011;11734;51.046;13.778;2023-12-14T04:36:06;22.10;;;13.00;;
23129;SDS011;11734;51.046;13.778;2023-12-14T04:38:33;19.33;;;12.30;;
23129;SDS011;11734;51.046;13.778;2023-12-14T04:41:01;22.60;;;12.03;;
23129;SDS011;11734;51.046;13.778;2023-12-14T04:43:28;22.43;;;12.77;;
23129;SDS011;11734;51.046;13.778;2023-12-14T04:45:56;21.87;;;12.27;;
23129;SDS011;11734;51.046;13.778;2023-12-14T04:48:24;21.83;;;12.57;;
23129;SDS011;11734;51.046;13.778;2023-12-14T04:50:51;21.97;;;12.03;;
23129;SDS011;11734;51.046;13.778;2023-12-14T04:53:18;19.47;;;12.43;;
23129;SDS011;11734;51.046;13.778;2023-12-14T04:55:46;20.77;;;12.17;;
23129;SDS011;11734;51.046;13.778;2023-12-14T04:58:13;17.50;;;12.47;;
23129;SDS011;11734;51.046;13.778;2023-12-14T05:00:40;19.17;;;12.17;;
23129;SDS011;11734;51.046;13.778;2023-12-14T05:03:08;19.80;;;12.77;;
23129;SDS011;11734;51.046;13.778;2023-12-14T05:05:35;21.83;;;12.93;;
23129;SDS011;11734;51.046;13.778;2023-12-14T05:08:02;23.60;;;13.20;;
23129;SDS011;11734;51.046;13.778;2023-12-14T05:10:30;21.47;;;13.67;;
23129;SDS011;11734;51.046;13.778;2023-12-14T05:13:00;25.87;;;14.23;;
23129;SDS011;11734;51.046;13.778;2023-12-14T05:15:27;21.87;;;13.67;;
23129;SDS011;11734;51.046;13.778;2023-12-14T05:17:54;23.03;;;12.97;;
23129;SDS011;11734;51.046;13.778;2023-12-14T05:20:22;26.07;;;15.10;;
23129;SDS011;11734;51.046;13.778;2023-12-14T05:22:49;25.77;;;14.67;;
23129;SDS011;11734;51.046;13.778;2023-12-14T05:25:16;29.97;;;17.10;;
23129;SDS011;11734;51.046;13.778;2023-12-14T05:27:44;34.17;;;17.43;;
23129;SDS011;11734;51.046;13.778;2023-12-14T05:30:11;29.60;;;16.30;;
23129;SDS011;11734;51.046;13.778;2023-12-14T05:32:38;29.13;;;16.27;;
23129;SDS011;11734;51.046;13.778;2023-12-14T05:35:07;31.00;;;16.57;;
23129;SDS011;11734;51.046;13.778;2023-12-14T05:37:36;29.07;;;16.70;;
23129;SDS011;11734;51.046;13.778;2023-12-14T05:40:03;30.63;;;15.97;;
23129;SDS011;11734;51.046;13.778;2023-12-14T05:42:30;33.73;;;16.60;;
23129;SDS011;11734;51.046;13.778;2023-12-14T05:44:58;32.47;;;16.80;;
23129;SDS011;11734;51.046;13.778;2023-12-14T05:47:28;33.13;;;16.53;;
23129;SDS011;11734;51.046;13.778;2023-12-14T05:49:56;30.57;;;15.77;;
23129;SDS011;11734;51.046;13.778;2023-12-14T05:52:25;35.70;;;16.37;;
23129;SDS011;11734;51.046;13.778;2023-12-14T05:54:52;30.83;;;16.03;;
23129;SDS011;11734;51.046;13.778;2023-12-14T05:57:20;29.23;;;15.57;;
23129;SDS011;11734;51.046;13.778;2023-12-14T05:59:47;38.70;;;19.33;;
23129;SDS011;11734;51.046;13.778;2023-12-14T06:02:14;35.37;;;18.50;;
23129;SDS011;11734;51.046;13.778;2023-12-14T06:04:41;38.90;;;18.17;;
23129;SDS011;11734;51.046;13.778;2023-12-14T06:07:10;28.73;;;15.10;;
23129;SDS011;11734;51.046;13.778;2023-12-14T06:09:39;32.63;;;15.50;;
23129;SDS011;11734;51.046;13.778;2023-12-14T06:12:06;32.10;;;14.53;;
23129;SDS011;11734;51.046;13.778;2023-12-14T06:14:33;30.83;;;14.07;;
23129;SDS011;11734;51.046;13.778;2023-12-14T06:17:01;32.17;;;13.40;;
23129;SDS011;11734;51.046;13.778;2023-12-14T06:19:29;24.13;;;12.27;;
23129;SDS011;11734;51.046;13.778;2023-12-14T06:21:56;25.77;;;12.50;;
23129;SDS011;11734;51.046;13.778;2023-12-14T06:24:23;23.03;;;11.70;;
23129;SDS011;11734;51.046;13.778;2023-12-14T06:26:50;24.90;;;12.50;;
23129;SDS011;11734;51.046;13.778;2023-12-14T06:29:18;25.80;;;13.00;;
23129;SDS011;11734;51.046;13.778;2023-12-14T06:31:45;24.93;;;11.47;;
23129;SDS011;11734;51.046;13.778;2023-12-14T06:34:13;23.27;;;10.80;;
23129;SDS011;11734;51.046;13.778;2023-12-14T06:36:46;17.67;;;10.37;;
23129;SDS011;11734;51.046;13.778;2023-12-14T06:39:14;19.33;;;10.47;;
23129;SDS011;11734;51.046;13.778;2023-12-14T06:41:45;17.67;;;9.60;;
23129;SDS011;11734;51.046;13.778;2023-12-14T06:44:13;18.20;;;9.87;;
23129;SDS011;11734;51.046;13.778;2023-12-14T06:46:40;15.43;;;9.47;;
23129;SDS011;11734;51.046;13.778;2023-12-14T06:49:07;18.80;;;9.17;;
23129;SDS011;11734;51.046;13.778;2023-12-14T06:51:35;16.77;;;9.20;;
23129;SDS011;11734;51.046;13.778;2023-12-14T06:54:02;18.67;;;8.67;;
23129;SDS011;11734;51.046;13.778;2023-12-14T06:56:29;14.47;;;9.20;;
23129;SDS011;11734;51.046;13.778;2023-12-14T06:58:56;18.07;;;8.83;;
23129;SDS011;11734;51.046;13.778;2023-12-14T07:01:24;17.07;;;9.10;;
23129;SDS011;11734;51.046;13.778;2023-12-14T07:03:51;18.10;;;10.13;;
23129;SDS011;11734;51.046;13.778;2023-12-14T07:06:19;17.67;;;10.10;;
23129;SDS011;11734;51.046;13.778;2023-12-14T07:08:47;24.60;;;12.57;;
23129;SDS011;11734;51.046;13.778;2023-12-14T07:11:15;23.00;;;11.17;;
23129;SDS011;11734;51.046;13.778;2023-12-14T07:13:43;24.37;;;12.83;;
23129;SDS011;11734;51.046;13.778;2023-12-14T07:16:12;25.00;;;12.63;;
23129;SDS011;11734;51.046;13.778;2023-12-14T07:18:43;26.97;;;12.83;;
23129;SDS011;11734;51.046;13.778;2023-12-14T07:21:13;25.63;;;13.47;;
23129;SDS011;11734;51.046;13.778;2023-12-14T07:23:42;27.30;;;13.43;;
23129;SDS011;11734;51.046;13.778;2023-12-14T07:26:09;29.27;;;13.83;;
23129;SDS011;11734;51.046;13.778;2023-12-14T07:28:36;27.10;;;13.87;;
23129;SDS011;11734;51.046;13.778;2023-12-14T07:31:04;22.47;;;12.97;;
23129;SDS011;11734;51.046;13.778;2023-12-14T07:33:31;28.40;;;14.70;;
23129;SDS011;11734;51.046;13.778;2023-12-14T07:35:59;28.87;;;14.83;;
23129;SDS011;11734;51.046;13.778;2023-12-14T07:38:26;28.57;;;14.10;;
23129;SDS011;11734;51.046;13.778;2023-12-14T07:40:53;24.73;;;14.57;;
23129;SDS011;11734;51.046;13.778;2023-12-14T07:43:21;25.53;;;14.17;;
23129;SDS011;11734;51.046;13.778;2023-12-14T07:45:49;28.07;;;14.70;;
23129;SDS011;11734;51.046;13.778;2023-12-14T07:48:16;26.80;;;14.47;;
23129;SDS011;11734;51.046;13.778;2023-12-14T07:50:43;24.70;;;13.53;;
23129;SDS011;11734;51.046;13.778;2023-12-14T07:53:14;24.37;;;13.83;;
23129;SDS011;11734;51.046;13.778;2023-12-14T07:55:41;23.30;;;13.43;;
23129;SDS011;11734;51.046;13.778;2023-12-14T07:58:09;25.23;;;13.90;;
23129;SDS011;11734;51.046;13.778;2023-12-14T08:00:36;24.37;;;13.40;;
23129;SDS011;11734;51.046;13.778;2023-12-14T08:03:03;27.47;;;13.93;;
23129;SDS011;11734;51.046;13.778;2023-12-14T08:05:31;25.43;;;12.87;;
23129;SDS011;11734;51.046;13.778;2023-12-14T08:07:59;21.83;;;13.00;;
23129;SDS011;11734;51.046;13.778;2023-12-14T08:10:27;22.50;;;12.43;;
23129;SDS011;11734;51.046;13.778;2023-12-14T08:12:54;23.77;;;12.90;;
23129;SDS011;11734;51.046;13.778;2023-12-14T08:15:22;21.33;;;12.30;;
23129;SDS011;11734;51.046;13.778;2023-12-14T08:17:49;18.67;;;11.30;;
23129;SDS011;11734;51.046;13.778;2023-12-14T08:20:17;15.67;;;10.30;;
23129;SDS011;11734;51.046;13.778;2023-12-14T08:22:44;15.93;;;9.53;;
23129;SDS011;11734;51.046;13.778;2023-12-14T08:25:12;13.20;;;8.50;;
23129;SDS011;11734;51.046;13.778;2023-12-14T08:27:44;13.07;;;8.40;;
23129;SDS011;11734;51.046;13.778;2023-12-14T08:30:11;11.40;;;7.93;;
23129;SDS011;11734;51.046;13.778;2023-12-14T08:32:39;11.97;;;8.30;;
23129;SDS011;11734;51.046;13.778;2023-12-14T08:35:07;11.50;;;7.77;;
23129;SDS011;11734;51.046;13.778;2023-12-14T08:37:37;12.30;;;7.93;;
23129;SDS011;11734;51.046;13.778;2023-12-14T08:40:05;12.30;;;8.30;;
23129;SDS011;11734;51.046;13.778;2023-12-14T08:42:33;12.43;;;7.80;;
23129;SDS011;11734;51.046;13.778;2023-12-14T08:45:01;11.00;;;7.77;;
23129;SDS011;11734;51.046;13.778;2023-12-14T08:47:29;12.40;;;7.70;;
23129;SDS011;11734;51.046;13.778;2023-12-14T08:49:56;12.07;;;8.30;;
23129;SDS011;11734;51.046;13.778;2023-12-14T08:52:23;12.77;;;7.67;;
23129;SDS011;11734;51.046;13.778;2023-12-14T08:54:51;13.53;;;7.70;;
23129;SDS011;11734;51.046;13.778;2023-12-14T08:57:18;12.23;;;7.87;;
23129;SDS011;11734;51.046;13.778;2023-12-14T08:59:46;13.17;;;7.40;;
23129;SDS011;11734;51.046;13.778;2023-12-14T09:02:14;12.10;;;6.80;;
23129;SDS011;11734;51.046;13.778;2023-12-14T09:04:42;9.67;;;6.13;;
23129;SDS011;11734;51.046;13.778;2023-12-14T09:07:09;9.37;;;6.03;;
23129;SDS011;11734;51.046;13.778;2023-12-14T09:09:36;9.80;;;5.90;;
23129;SDS011;11734;51.046;13.778;2023-12-14T09:12:04;8.97;;;5.90;;
23129;SDS011;11734;51.046;13.778;2023-12-14T09:14:31;9.70;;;5.93;;
23129;SDS011;11734;51.046;13.778;2023-12-14T09:16:59;7.77;;;5.67;;
23129;SDS011;11734;51.046;13.778;2023-12-14T09:19:26;8.67;;;5.77;;
23129;SDS011;11734;51.046;13.778;2023-12-14T09:21:53;10.97;;;5.37;;
23129;SDS011;11734;51.046;13.778;2023-12-14T09:24:20;7.13;;;5.30;;
23129;SDS011;11734;51.046;13.778;2023-12-14T09:26:48;8.23;;;5.60;;
23129;SDS011;11734;51.046;13.778;2023-12-14T09:29:15;8.53;;;5.67;;
23129;SDS011;11734;51.046;13.778;2023-12-14T09:31:43;8.30;;;5.67;;
23129;SDS011;11734;51.046;13.778;2023-12-14T09:34:11;8.10;;;4.90;;
23129;SDS011;11734;51.046;13.778;2023-12-14T09:36:39;8.37;;;5.40;;
23129;SDS011;11734;51.046;13.778;2023-12-14T09:39:06;8.17;;;5.53;;
23129;SDS011;11734;51.046;13.778;2023-12-14T09:41:37;5.60;;;4.67;;
23129;SDS011;11734;51.046;13.778;2023-12-14T09:44:05;9.37;;;4.67;;
23129;SDS011;11734;51.046;13.778;2023-12-14T09:46:34;6.33;;;5.00;;
23129;SDS011;11734;51.046;13.778;2023-12-14T09:49:03;5.60;;;4.73;;
23129;SDS011;11734;51.046;13.778;2023-12-14T09:51:34;6.03;;;4.73;;
23129;SDS011;11734;51.046;13.778;2023-12-14T09:54:02;6.57;;;5.30;;
23129;SDS011;11734;51.046;13.778;2023-12-14T09:56:29;9.20;;;5.07;;
23129;SDS011;11734;51.046;13.778;2023-12-14T09:58:57;6.23;;;5.03;;
23129;SDS011;11734;51.046;13.778;2023-12-14T10:01:27;8.90;;;5.10;;
23129;SDS011;11734;51.046;13.778;2023-12-14T10:04:16;6.63;;;4.97;;
23129;SDS011;11734;51.046;13.778;2023-12-14T10:06:44;5.17;;;4.57;;
23129;SDS011;11734;51.046;13.778;2023-12-14T10:09:12;6.60;;;4.77;;
23129;SDS011;11734;51.046;13.778;2023-12-14T10:11:42;5.70;;;4.60;;
23129;SDS011;11734;51.046;13.778;2023-12-14T10:14:20;5.47;;;4.67;;
23129;SDS011;11734;51.046;13.778;2023-12-14T10:16:49;5.50;;;4.43;;
23129;SDS011;11734;51.046;13.778;2023-12-14T10:19:18;5.40;;;4.47;;
23129;SDS011;11734;51.046;13.778;2023-12-14T10:21:46;6.10;;;4.47;;
23129;SDS011;11734;51.046;13.778;2023-12-14T10:24:14;5.47;;;4.50;;
23129;SDS011;11734;51.046;13.778;2023-12-14T10:26:46;5.33;;;4.23;;
23129;SDS011;11734;51.046;13.778;2023-12-14T10:29:13;6.03;;;4.23;;
23129;SDS011;11734;51.046;13.778;2023-12-14T10:31:40;5.77;;;3.97;;
23129;SDS011;11734;51.046;13.778;2023-12-14T10:34:09;4.47;;;3.80;;
23129;SDS011;11734;51.046;13.778;2023-12-14T10:36:39;6.37;;;4.03;;
23129;SDS011;11734;51.046;13.778;2023-12-14T10:39:06;7.43;;;4.40;;
23129;SDS011;11734;51.046;13.778;2023-12-14T10:41:35;5.53;;;4.20;;
23129;SDS011;11734;51.046;13.778;2023-12-14T10:44:03;6.47;;;5.17;;
23129;SDS011;11734;51.046;13.778;2023-12-14T10:46:50;7.57;;;4.93;;
23129;SDS011;11734;51.046;13.778;2023-12-14T10:49:23;7.10;;;5.57;;
23129;SDS011;11734;51.046;13.778;2023-12-14T10:51:52;8.03;;;5.27;;
23129;SDS011;11734;51.046;13.778;2023-12-14T10:54:21;8.10;;;5.93;;
23129;SDS011;11734;51.046;13.778;2023-12-14T10:56:54;8.53;;;6.17;;
23129;SDS011;11734;51.046;13.778;2023-12-14T10:59:25;10.17;;;6.77;;
23129;SDS011;11734;51.046;13.778;2023-12-14T11:01:53;8.77;;;6.30;;
23129;SDS011;11734;51.046;13.778;2023-12-14T11:04:21;9.43;;;6.03;;
23129;SDS011;11734;51.046;13.778;2023-12-14T11:06:48;9.77;;;6.27;;
23129;SDS011;11734;51.046;13.778;2023-12-14T11:09:17;9.57;;;6.43;;
23129;SDS011;11734;51.046;13.778;2023-12-14T11:14:15;9.97;;;6.33;;
23129;SDS011;11734;51.046;13.778;2023-12-14T11:16:47;7.47;;;5.53;;
23129;SDS011;11734;51.046;13.778;2023-12-14T11:24:34;8.40;;;5.63;;
23129;SDS011;11734;51.046;13.778;2023-12-14T11:27:08;7.83;;;5.30;;
23129;SDS011;11734;51.046;13.778;2023-12-14T11:29:36;7.47;;;5.50;;
23129;SDS011;11734;51.046;13.778;2023-12-14T11:32:08;7.67;;;5.87;;
23129;SDS011;11734;51.046;13.778;2023-12-14T11:34:36;9.73;;;6.27;;
23129;SDS011;11734;51.046;13.778;2023-12-14T11:37:06;7.40;;;5.57;;
23129;SDS011;11734;51.046;13.778;2023-12-14T11:39:34;8.37;;;5.43;;
23129;SDS011;11734;51.046;13.778;2023-12-14T11:42:01;8.53;;;6.37;;
23129;SDS011;11734;51.046;13.778;2023-12-14T11:44:29;9.70;;;5.80;;
23129;SDS011;11734;51.046;13.778;2023-12-14T11:47:01;8.00;;;5.80;;
23129;SDS011;11734;51.046;13.778;2023-12-14T11:49:28;8.80;;;6.03;;
23129;SDS011;11734;51.046;13.778;2023-12-14T11:51:56;8.60;;;6.33;;
23129;SDS011;11734;51.046;13.778;2023-12-14T11:54:23;10.47;;;6.33;;
23129;SDS011;11734;51.046;13.778;2023-12-14T11:56:50;10.70;;;5.90;;
23129;SDS011;11734;51.046;13.778;2023-12-14T11:59:18;10.87;;;6.47;;
23129;SDS011;11734;51.046;13.778;2023-12-14T12:01:59;8.73;;;5.77;;
23129;SDS011;11734;51.046;13.778;2023-12-14T12:04:27;10.43;;;5.77;;
23129;SDS011;11734;51.046;13.778;2023-12-14T12:07:04;8.17;;;5.40;;
23129;SDS011;11734;51.046;13.778;2023-12-14T12:09:34;9.03;;;5.97;;
23129;SDS011;11734;51.046;13.778;2023-12-14T12:12:05;8.97;;;6.00;;
23129;SDS011;11734;51.046;13.778;2023-12-14T12:14:33;10.57;;;6.40;;
23129;SDS011;11734;51.046;13.778;2023-12-14T12:17:00;10.60;;;6.70;;
23129;SDS011;11734;51.046;13.778;2023-12-14T12:19:34;10.07;;;6.30;;
23129;SDS011;11734;51.046;13.778;2023-12-14T12:22:02;9.57;;;6.10;;
23129;SDS011;11734;51.046;13.778;2023-12-14T12:24:29;11.57;;;6.37;;
23129;SDS011;11734;51.046;13.778;2023-12-14T12:27:00;11.00;;;6.13;;
23129;SDS011;11734;51.046;13.778;2023-12-14T12:29:27;10.03;;;5.80;;
23129;SDS011;11734;51.046;13.778;2023-12-14T12:31:54;9.47;;;6.13;;
23129;SDS011;11734;51.046;13.778;2023-12-14T12:34:22;8.97;;;5.67;;
23129;SDS011;11734;51.046;13.778;2023-12-14T12:36:49;9.07;;;5.63;;
23129;SDS011;11734;51.046;13.778;2023-12-14T12:39:17;8.33;;;5.50;;
23129;SDS011;11734;51.046;13.778;2023-12-14T12:41:44;12.40;;;6.07;;
23129;SDS011;11734;51.046;13.778;2023-12-14T12:44:11;12.60;;;6.37;;
23129;SDS011;11734;51.046;13.778;2023-12-14T12:46:39;10.87;;;5.83;;
23129;SDS011;11734;51.046;13.778;2023-12-14T12:49:07;10.53;;;5.90;;
23129;SDS011;11734;51.046;13.778;2023-12-14T12:51:34;8.83;;;6.00;;
23129;SDS011;11734;51.046;13.778;2023-12-14T12:54:02;10.53;;;6.20;;
23129;SDS011;11734;51.046;13.778;2023-12-14T12:56:39;8.93;;;6.00;;
23129;SDS011;11734;51.046;13.778;2023-12-14T12:59:06;10.77;;;6.97;;
23129;SDS011;11734;51.046;13.778;2023-12-14T13:01:35;12.50;;;7.27;;
23129;SDS011;11734;51.046;13.778;2023-12-14T13:04:03;10.80;;;7.10;;
23129;SDS011;11734;51.046;13.778;2023-12-14T13:06:31;11.50;;;7.67;;
23129;SDS011;11734;51.046;13.778;2023-12-14T13:08:58;11.33;;;7.10;;
23129;SDS011;11734;51.046;13.778;2023-12-14T13:11:26;10.67;;;6.70;;
23129;SDS011;11734;51.046;13.778;2023-12-14T13:13:53;12.50;;;7.07;;
23129;SDS011;11734;51.046;13.778;2023-12-14T13:16:21;12.47;;;7.10;;
23129;SDS011;11734;51.046;13.778;2023-12-14T13:18:49;11.90;;;7.63;;
23129;SDS011;11734;51.046;13.778;2023-12-14T13:21:16;12.63;;;7.33;;
23129;SDS011;11734;51.046;13.778;2023-12-14T13:23:43;13.20;;;7.93;;
23129;SDS011;11734;51.046;13.778;2023-12-14T13:26:10;11.77;;;7.47;;
23129;SDS011;11734;51.046;13.778;2023-12-14T13:28:38;12.90;;;8.17;;
23129;SDS011;11734;51.046;13.778;2023-12-14T13:31:05;13.37;;;8.17;;
23129;SDS011;11734;51.046;13.778;2023-12-14T13:33:33;14.63;;;8.10;;
23129;SDS011;11734;51.046;13.778;2023-12-14T13:36:00;12.67;;;7.57;;
23129;SDS011;11734;51.046;13.778;2023-12-14T13:38:27;12.50;;;7.97;;
23129;SDS011;11734;51.046;13.778;2023-12-14T13:40:55;14.00;;;8.67;;
23129;SDS011;11734;51.046;13.778;2023-12-14T13:43:22;13.03;;;8.90;;
23129;SDS011;11734;51.046;13.778;2023-12-14T13:45:49;14.10;;;8.30;;
23129;SDS011;11734;51.046;13.778;2023-12-14T13:48:39;11.33;;;8.00;;
23129;SDS011;11734;51.046;13.778;2023-12-14T13:51:07;14.90;;;9.00;;
23129;SDS011;11734;51.046;13.778;2023-12-14T13:53:35;12.53;;;7.63;;
23129;SDS011;11734;51.046;13.778;2023-12-14T13:56:02;13.03;;;7.90;;
23129;SDS011;11734;51.046;13.778;2023-12-14T13:58:29;13.80;;;7.67;;
23129;SDS011;11734;51.046;13.778;2023-12-14T14:00:57;15.37;;;9.03;;
23129;SDS011;11734;51.046;13.778;2023-12-14T14:03:25;12.87;;;8.43;;
23129;SDS011;11734;51.046;13.778;2023-12-14T14:05:54;14.83;;;8.73;;
23129;SDS011;11734;51.046;13.778;2023-12-14T14:08:22;14.13;;;8.73;;
23129;SDS011;11734;51.046;13.778;2023-12-14T14:10:49;14.10;;;8.03;;
23129;SDS011;11734;51.046;13.778;2023-12-14T14:13:16;11.60;;;7.73;;
23129;SDS011;11734;51.046;13.778;2023-12-14T14:15:44;13.23;;;8.67;;
23129;SDS011;11734;51.046;13.778;2023-12-14T14:18:11;11.60;;;7.30;;
23129;SDS011;11734;51.046;13.778;2023-12-14T14:20:39;11.93;;;7.50;;
23129;SDS011;11734;51.046;13.778;2023-12-14T14:23:06;11.03;;;6.80;;
23129;SDS011;11734;51.046;13.778;2023-12-14T14:25:34;10.03;;;7.20;;
23129;SDS011;11734;51.046;13.778;2023-12-14T14:28:01;10.37;;;6.53;;
23129;SDS011;11734;51.046;13.778;2023-12-14T14:30:29;10.07;;;6.47;;